sensor_id;sensor_type;location;lat;lon;timestamp;temperature;humidity
4245;DHT22;2136;48.502;9.194;2022-08-19T00:01:16;21.40;99.90
4245;DHT22;2136;48.502;9.194;2022-08-19T00:03:43;21.40;99.90
4245;DHT22;2136;48.502;9.194;2022-08-19T00:06:09;21.40;99.90
4245;DHT22;2136;48.502;9.194;2022-08-19T00:08:36;21.40;99.90
4245;DHT22;2136;48.502;9.194;2022-08-19T00:11:03;21.40;99.90
4245;DHT22;2136;48.502;9.194;2022-08-19T00:13:30;21.40;99.90
4245;DHT22;2136;48.502;9.194;2022-08-19T00:15:57;21.40;99.90
4245;DHT22;2136;48.502;9.194;2022-08-19T00:18:26;21.40;99.90
4245;DHT22;2136;48.502;9.194;2022-08-19T00:20:53;21.40;99.90
4245;DHT22;2136;48.502;9.194;2022-08-19T00:23:20;21.40;99.90
4245;DHT22;2136;48.502;9.194;2022-08-19T00:25:47;21.40;99.90
4245;DHT22;2136;48.502;9.194;2022-08-19T00:28:13;21.40;99.90
4245;DHT22;2136;48.502;9.194;2022-08-19T00:30:41;21.40;99.90
4245;DHT22;2136;48.502;9.194;2022-08-19T00:33:07;21.40;99.90
4245;DHT22;2136;48.502;9.194;2022-08-19T00:35:36;21.40;99.90
4245;DHT22;2136;48.502;9.194;2022-08-19T00:38:04;21.40;99.90
4245;DHT22;2136;48.502;9.194;2022-08-19T00:40:32;21.40;99.90
4245;DHT22;2136;48.502;9.194;2022-08-19T00:42:59;21.30;99.90
4245;DHT22;2136;48.502;9.194;2022-08-19T00:45:27;21.30;99.90
4245;DHT22;2136;48.502;9.194;2022-08-19T00:47:57;21.30;99.90
4245;DHT22;2136;48.502;9.194;2022-08-19T00:50:27;21.30;99.90
4245;DHT22;2136;48.502;9.194;2022-08-19T00:52:56;21.30;99.90
4245;DHT22;2136;48.502;9.194;2022-08-19T00:55:26;21.30;99.90
4245;DHT22;2136;48.502;9.194;2022-08-19T00:57:57;21.30;99.90
4245;DHT22;2136;48.502;9.194;2022-08-19T01:00:25;21.30;99.90
4245;DHT22;2136;48.502;9.194;2022-08-19T01:02:53;21.20;99.90
4245;DHT22;2136;48.502;9.194;2022-08-19T01:05:22;21.20;99.90
4245;DHT22;2136;48.502;9.194;2022-08-19T01:07:50;21.20;99.90
4245;DHT22;2136;48.502;9.194;2022-08-19T01:10:22;21.20;99.90
4245;DHT22;2136;48.502;9.194;2022-08-19T01:12:50;21.20;99.90
4245;DHT22;2136;48.502;9.194;2022-08-19T01:15:19;21.20;99.90
4245;DHT22;2136;48.502;9.194;2022-08-19T01:17:47;21.20;99.90
4245;DHT22;2136;48.502;9.194;2022-08-19T01:20:18;21.20;99.90
4245;DHT22;2136;48.502;9.194;2022-08-19T01:22:48;21.20;99.90
4245;DHT22;2136;48.502;9.194;2022-08-19T01:25:19;21.20;99.90
4245;DHT22;2136;48.502;9.194;2022-08-19T01:27:49;21.10;99.90
4245;DHT22;2136;48.502;9.194;2022-08-19T01:30:19;21.10;99.90
4245;DHT22;2136;48.502;9.194;2022-08-19T01:32:48;21.10;99.90
4245;DHT22;2136;48.502;9.194;2022-08-19T01:35:15;21.10;99.90
4245;DHT22;2136;48.502;9.194;2022-08-19T01:37:51;21.10;99.90
4245;DHT22;2136;48.502;9.194;2022-08-19T01:40:21;21.10;99.90
4245;DHT22;2136;48.502;9.194;2022-08-19T01:42:49;21.00;99.90
4245;DHT22;2136;48.502;9.194;2022-08-19T01:45:17;21.00;99.90
4245;DHT22;2136;48.502;9.194;2022-08-19T01:47:44;21.00;99.90
4245;DHT22;2136;48.502;9.194;2022-08-19T01:50:11;21.00;99.90
4245;DHT22;2136;48.502;9.194;2022-08-19T01:52:40;21.00;99.90
4245;DHT22;2136;48.502;9.194;2022-08-19T01:55:11;21.00;99.90
4245;DHT22;2136;48.502;9.194;2022-08-19T01:57:40;20.90;99.90
4245;DHT22;2136;48.502;9.194;2022-08-19T02:00:13;20.90;99.90
4245;DHT22;2136;48.502;9.194;2022-08-19T02:02:41;20.90;99.90
4245;DHT22;2136;48.502;9.194;2022-08-19T02:05:08;20.90;99.90
4245;DHT22;2136;48.502;9.194;2022-08-19T02:07:36;20.80;99.90
4245;DHT22;2136;48.502;9.194;2022-08-19T02:10:03;20.80;99.90
4245;DHT22;2136;48.502;9.194;2022-08-19T02:12:31;20.80;99.90
4245;DHT22;2136;48.502;9.194;2022-08-19T02:14:59;20.80;99.90
4245;DHT22;2136;48.502;9.194;2022-08-19T02:17:27;20.70;99.90
4245;DHT22;2136;48.502;9.194;2022-08-19T02:19:54;20.70;99.90
4245;DHT22;2136;48.502;9.194;2022-08-19T02:22:22;20.70;99.90
4245;DHT22;2136;48.502;9.194;2022-08-19T02:24:50;20.70;99.90
4245;DHT22;2136;48.502;9.194;2022-08-19T02:27:17;20.70;99.90
4245;DHT22;2136;48.502;9.194;2022-08-19T02:29:47;20.70;99.90
4245;DHT22;2136;48.502;9.194;2022-08-19T02:32:15;20.70;99.90
4245;DHT22;2136;48.502;9.194;2022-08-19T02:34:44;20.70;99.90
4245;DHT22;2136;48.502;9.194;2022-08-19T02:37:11;20.70;99.90
4245;DHT22;2136;48.502;9.194;2022-08-19T02:39:58;20.70;99.90
4245;DHT22;2136;48.502;9.194;2022-08-19T02:42:24;20.70;99.90
4245;DHT22;2136;48.502;9.194;2022-08-19T02:44:55;20.70;99.90
4245;DHT22;2136;48.502;9.194;2022-08-19T02:47:22;20.70;99.90
4245;DHT22;2136;48.502;9.194;2022-08-19T02:49:48;20.70;99.90
4245;DHT22;2136;48.502;9.194;2022-08-19T02:52:16;20.70;99.90
4245;DHT22;2136;48.502;9.194;2022-08-19T02:54:42;20.70;99.90
4245;DHT22;2136;48.502;9.194;2022-08-19T02:57:10;20.70;99.90
4245;DHT22;2136;48.502;9.194;2022-08-19T02:59:37;20.70;99.90
4245;DHT22;2136;48.502;9.194;2022-08-19T03:02:06;20.70;99.90
4245;DHT22;2136;48.502;9.194;2022-08-19T03:04:33;20.70;99.90
4245;DHT22;2136;48.502;9.194;2022-08-19T03:07:00;20.70;99.90
4245;DHT22;2136;48.502;9.194;2022-08-19T03:09:27;20.70;99.90
4245;DHT22;2136;48.502;9.194;2022-08-19T03:11:55;20.70;99.90
4245;DHT22;2136;48.502;9.194;2022-08-19T03:14:22;20.70;99.90
4245;DHT22;2136;48.502;9.194;2022-08-19T03:16:51;20.70;99.90
4245;DHT22;2136;48.502;9.194;2022-08-19T03:19:20;20.70;99.90
4245;DHT22;2136;48.502;9.194;2022-08-19T03:21:47;20.70;99.90
4245;DHT22;2136;48.502;9.194;2022-08-19T03:24:16;20.70;99.90
4245;DHT22;2136;48.502;9.194;2022-08-19T03:26:46;20.70;99.90
4245;DHT22;2136;48.502;9.194;2022-08-19T03:29:14;20.70;99.90
4245;DHT22;2136;48.502;9.194;2022-08-19T03:31:42;20.70;99.90
4245;DHT22;2136;48.502;9.194;2022-08-19T03:34:10;20.70;99.90
4245;DHT22;2136;48.502;9.194;2022-08-19T03:36:39;20.70;99.90
4245;DHT22;2136;48.502;9.194;2022-08-19T03:39:06;20.70;99.90
4245;DHT22;2136;48.502;9.194;2022-08-19T03:41:42;20.70;99.90
4245;DHT22;2136;48.502;9.194;2022-08-19T03:44:10;20.70;99.90
4245;DHT22;2136;48.502;9.194;2022-08-19T03:46:37;20.60;99.90
4245;DHT22;2136;48.502;9.194;2022-08-19T03:49:04;20.70;99.90
4245;DHT22;2136;48.502;9.194;2022-08-19T03:51:34;20.60;99.90
4245;DHT22;2136;48.502;9.194;2022-08-19T03:54:05;20.60;99.90
4245;DHT22;2136;48.502;9.194;2022-08-19T03:56:34;20.60;99.90
4245;DHT22;2136;48.502;9.194;2022-08-19T03:59:02;20.60;99.90
4245;DHT22;2136;48.502;9.194;2022-08-19T04:01:29;20.60;99.90
4245;DHT22;2136;48.502;9.194;2022-08-19T04:03:57;20.60;99.90
4245;DHT22;2136;48.502;9.194;2022-08-19T04:06:26;20.60;99.90
4245;DHT22;2136;48.502;9.194;2022-08-19T04:08:54;20.60;99.90
4245;DHT22;2136;48.502;9.194;2022-08-19T04:11:26;20.60;99.90
4245;DHT22;2136;48.502;9.194;2022-08-19T04:13:54;20.60;99.90
4245;DHT22;2136;48.502;9.194;2022-08-19T04:16:23;20.60;99.90
4245;DHT22;2136;48.502;9.194;2022-08-19T04:18:54;20.60;99.90
4245;DHT22;2136;48.502;9.194;2022-08-19T04:21:24;20.60;99.90
4245;DHT22;2136;48.502;9.194;2022-08-19T04:23:52;20.60;99.90
4245;DHT22;2136;48.502;9.194;2022-08-19T04:26:22;20.60;99.90
4245;DHT22;2136;48.502;9.194;2022-08-19T04:28:51;20.60;99.90
4245;DHT22;2136;48.502;9.194;2022-08-19T04:31:24;20.60;99.90
4245;DHT22;2136;48.502;9.194;2022-08-19T04:33:52;20.60;99.90
4245;DHT22;2136;48.502;9.194;2022-08-19T04:36:22;20.60;99.90
4245;DHT22;2136;48.502;9.194;2022-08-19T04:38:52;20.60;99.90
4245;DHT22;2136;48.502;9.194;2022-08-19T04:41:19;20.60;99.90
4245;DHT22;2136;48.502;9.194;2022-08-19T04:44:05;20.50;99.90
4245;DHT22;2136;48.502;9.194;2022-08-19T04:46:33;20.50;99.90
4245;DHT22;2136;48.502;9.194;2022-08-19T04:49:01;20.50;99.90
4245;DHT22;2136;48.502;9.194;2022-08-19T04:51:31;20.60;99.90
4245;DHT22;2136;48.502;9.194;2022-08-19T04:53:59;20.50;99.90
4245;DHT22;2136;48.502;9.194;2022-08-19T04:56:26;20.50;99.90
4245;DHT22;2136;48.502;9.194;2022-08-19T04:58:54;20.60;99.90
4245;DHT22;2136;48.502;9.194;2022-08-19T05:01:25;20.50;99.90
4245;DHT22;2136;48.502;9.194;2022-08-19T05:03:52;20.50;99.90
4245;DHT22;2136;48.502;9.194;2022-08-19T05:06:20;20.50;99.90
4245;DHT22;2136;48.502;9.194;2022-08-19T05:08:48;20.50;99.90
4245;DHT22;2136;48.502;9.194;2022-08-19T05:11:17;20.50;99.90
4245;DHT22;2136;48.502;9.194;2022-08-19T05:13:47;20.50;99.90
4245;DHT22;2136;48.502;9.194;2022-08-19T05:16:16;20.50;99.90
4245;DHT22;2136;48.502;9.194;2022-08-19T05:18:45;20.50;99.90
4245;DHT22;2136;48.502;9.194;2022-08-19T05:21:30;20.50;99.90
4245;DHT22;2136;48.502;9.194;2022-08-19T05:24:15;20.60;99.90
4245;DHT22;2136;48.502;9.194;2022-08-19T05:26:45;20.50;99.90
4245;DHT22;2136;48.502;9.194;2022-08-19T05:29:13;20.60;99.90
4245;DHT22;2136;48.502;9.194;2022-08-19T05:31:41;20.60;99.90
4245;DHT22;2136;48.502;9.194;2022-08-19T05:34:09;20.60;99.90
4245;DHT22;2136;48.502;9.194;2022-08-19T05:36:38;20.60;99.90
4245;DHT22;2136;48.502;9.194;2022-08-19T05:39:06;20.60;99.90
4245;DHT22;2136;48.502;9.194;2022-08-19T05:41:33;20.60;99.90
4245;DHT22;2136;48.502;9.194;2022-08-19T05:44:02;20.60;99.90
4245;DHT22;2136;48.502;9.194;2022-08-19T05:46:31;20.60;99.90
4245;DHT22;2136;48.502;9.194;2022-08-19T05:48:58;20.60;99.90
4245;DHT22;2136;48.502;9.194;2022-08-19T05:51:26;20.60;99.90
4245;DHT22;2136;48.502;9.194;2022-08-19T05:53:53;20.60;99.90
4245;DHT22;2136;48.502;9.194;2022-08-19T05:56:20;20.60;99.90
4245;DHT22;2136;48.502;9.194;2022-08-19T05:58:47;20.60;99.90
4245;DHT22;2136;48.502;9.194;2022-08-19T06:01:16;20.60;99.90
4245;DHT22;2136;48.502;9.194;2022-08-19T06:03:44;20.60;99.90
4245;DHT22;2136;48.502;9.194;2022-08-19T06:06:12;20.60;99.90
4245;DHT22;2136;48.502;9.194;2022-08-19T06:08:40;20.60;99.90
4245;DHT22;2136;48.502;9.194;2022-08-19T06:11:16;20.60;99.90
4245;DHT22;2136;48.502;9.194;2022-08-19T06:13:45;20.70;99.90
4245;DHT22;2136;48.502;9.194;2022-08-19T06:16:17;20.70;99.90
4245;DHT22;2136;48.502;9.194;2022-08-19T06:18:48;20.70;99.90
4245;DHT22;2136;48.502;9.194;2022-08-19T06:21:17;20.70;99.90
4245;DHT22;2136;48.502;9.194;2022-08-19T06:23:45;20.80;99.90
4245;DHT22;2136;48.502;9.194;2022-08-19T06:26:13;20.80;99.90
4245;DHT22;2136;48.502;9.194;2022-08-19T06:28:40;20.80;99.90
4245;DHT22;2136;48.502;9.194;2022-08-19T06:31:09;20.90;99.90
4245;DHT22;2136;48.502;9.194;2022-08-19T06:33:36;20.90;99.90
4245;DHT22;2136;48.502;9.194;2022-08-19T06:36:04;21.00;99.90
4245;DHT22;2136;48.502;9.194;2022-08-19T06:38:31;21.00;99.90
4245;DHT22;2136;48.502;9.194;2022-08-19T06:41:02;21.00;99.90
4245;DHT22;2136;48.502;9.194;2022-08-19T06:43:29;21.10;99.90
4245;DHT22;2136;48.502;9.194;2022-08-19T06:45:56;21.10;99.90
4245;DHT22;2136;48.502;9.194;2022-08-19T06:48:24;21.10;99.90
4245;DHT22;2136;48.502;9.194;2022-08-19T06:50:51;21.10;99.90
4245;DHT22;2136;48.502;9.194;2022-08-19T06:53:18;21.10;99.90
4245;DHT22;2136;48.502;9.194;2022-08-19T06:55:45;21.10;99.90
4245;DHT22;2136;48.502;9.194;2022-08-19T06:58:13;21.10;99.90
4245;DHT22;2136;48.502;9.194;2022-08-19T07:00:40;21.00;99.90
4245;DHT22;2136;48.502;9.194;2022-08-19T07:03:07;21.00;99.90
4245;DHT22;2136;48.502;9.194;2022-08-19T07:05:38;21.00;99.90
4245;DHT22;2136;48.502;9.194;2022-08-19T07:08:05;20.90;99.90
4245;DHT22;2136;48.502;9.194;2022-08-19T07:10:32;20.90;99.90
4245;DHT22;2136;48.502;9.194;2022-08-19T07:13:00;20.90;99.90
4245;DHT22;2136;48.502;9.194;2022-08-19T07:15:29;20.90;99.90
4245;DHT22;2136;48.502;9.194;2022-08-19T07:17:56;20.90;99.90
4245;DHT22;2136;48.502;9.194;2022-08-19T07:20:23;20.90;99.90
4245;DHT22;2136;48.502;9.194;2022-08-19T07:22:50;20.90;99.90
4245;DHT22;2136;48.502;9.194;2022-08-19T07:25:17;20.90;99.90
4245;DHT22;2136;48.502;9.194;2022-08-19T07:27:48;20.90;99.90
4245;DHT22;2136;48.502;9.194;2022-08-19T07:30:15;20.90;99.90
4245;DHT22;2136;48.502;9.194;2022-08-19T07:32:44;20.90;99.90
4245;DHT22;2136;48.502;9.194;2022-08-19T07:35:10;20.90;99.90
4245;DHT22;2136;48.502;9.194;2022-08-19T07:37:37;20.90;99.90
4245;DHT22;2136;48.502;9.194;2022-08-19T07:40:10;21.00;99.90
4245;DHT22;2136;48.502;9.194;2022-08-19T07:42:37;21.00;99.90
4245;DHT22;2136;48.502;9.194;2022-08-19T07:45:06;21.00;99.90
4245;DHT22;2136;48.502;9.194;2022-08-19T07:47:33;21.00;99.90
4245;DHT22;2136;48.502;9.194;2022-08-19T07:50:03;21.00;99.90
4245;DHT22;2136;48.502;9.194;2022-08-19T07:52:30;21.00;99.90
4245;DHT22;2136;48.502;9.194;2022-08-19T07:54:57;21.00;99.90
4245;DHT22;2136;48.502;9.194;2022-08-19T07:57:25;21.00;99.90
4245;DHT22;2136;48.502;9.194;2022-08-19T07:59:52;21.00;99.90
4245;DHT22;2136;48.502;9.194;2022-08-19T08:02:19;21.10;99.90
4245;DHT22;2136;48.502;9.194;2022-08-19T08:04:46;21.10;99.90
4245;DHT22;2136;48.502;9.194;2022-08-19T08:07:32;21.20;99.90
4245;DHT22;2136;48.502;9.194;2022-08-19T08:10:16;21.10;99.90
4245;DHT22;2136;48.502;9.194;2022-08-19T08:12:43;21.10;99.90
4245;DHT22;2136;48.502;9.194;2022-08-19T08:15:14;21.10;99.90
4245;DHT22;2136;48.502;9.194;2022-08-19T08:17:44;21.00;99.90
4245;DHT22;2136;48.502;9.194;2022-08-19T08:20:12;21.00;99.90
4245;DHT22;2136;48.502;9.194;2022-08-19T08:22:44;21.00;99.90
4245;DHT22;2136;48.502;9.194;2022-08-19T08:25:29;21.00;99.90
4245;DHT22;2136;48.502;9.194;2022-08-19T08:27:57;21.00;99.90
4245;DHT22;2136;48.502;9.194;2022-08-19T08:30:26;21.00;99.90
4245;DHT22;2136;48.502;9.194;2022-08-19T08:32:53;21.00;99.90
4245;DHT22;2136;48.502;9.194;2022-08-19T08:35:22;21.00;99.90
4245;DHT22;2136;48.502;9.194;2022-08-19T08:37:52;21.00;99.90
4245;DHT22;2136;48.502;9.194;2022-08-19T08:40:23;21.00;99.90
4245;DHT22;2136;48.502;9.194;2022-08-19T08:42:57;21.00;99.90
4245;DHT22;2136;48.502;9.194;2022-08-19T08:45:26;21.00;99.90
4245;DHT22;2136;48.502;9.194;2022-08-19T08:47:56;21.00;99.90
4245;DHT22;2136;48.502;9.194;2022-08-19T08:50:29;21.00;99.90
4245;DHT22;2136;48.502;9.194;2022-08-19T08:53:04;20.90;99.90
4245;DHT22;2136;48.502;9.194;2022-08-19T08:55:32;20.90;99.90
4245;DHT22;2136;48.502;9.194;2022-08-19T08:58:01;20.90;99.90
4245;DHT22;2136;48.502;9.194;2022-08-19T09:00:32;20.90;99.90
4245;DHT22;2136;48.502;9.194;2022-08-19T09:03:00;20.90;99.90
4245;DHT22;2136;48.502;9.194;2022-08-19T09:05:35;20.80;99.90
4245;DHT22;2136;48.502;9.194;2022-08-19T09:08:08;20.80;99.90
4245;DHT22;2136;48.502;9.194;2022-08-19T09:10:38;20.80;99.90
4245;DHT22;2136;48.502;9.194;2022-08-19T09:13:13;20.80;99.90
4245;DHT22;2136;48.502;9.194;2022-08-19T09:15:45;20.80;99.90
4245;DHT22;2136;48.502;9.194;2022-08-19T09:18:15;20.80;99.90
4245;DHT22;2136;48.502;9.194;2022-08-19T09:20:42;20.80;99.90
4245;DHT22;2136;48.502;9.194;2022-08-19T09:23:11;20.80;99.90
4245;DHT22;2136;48.502;9.194;2022-08-19T09:25:37;20.80;99.90
4245;DHT22;2136;48.502;9.194;2022-08-19T09:28:05;20.80;99.90
4245;DHT22;2136;48.502;9.194;2022-08-19T09:30:36;20.80;99.90
4245;DHT22;2136;48.502;9.194;2022-08-19T09:33:05;20.70;99.90
4245;DHT22;2136;48.502;9.194;2022-08-19T09:35:33;20.70;99.90
4245;DHT22;2136;48.502;9.194;2022-08-19T09:38:01;20.70;99.90
4245;DHT22;2136;48.502;9.194;2022-08-19T09:40:30;20.70;99.90
4245;DHT22;2136;48.502;9.194;2022-08-19T09:42:58;20.70;99.90
4245;DHT22;2136;48.502;9.194;2022-08-19T09:45:26;20.70;99.90
4245;DHT22;2136;48.502;9.194;2022-08-19T09:47:53;20.70;99.90
4245;DHT22;2136;48.502;9.194;2022-08-19T09:50:21;20.70;99.90
4245;DHT22;2136;48.502;9.194;2022-08-19T09:52:48;20.70;99.90
4245;DHT22;2136;48.502;9.194;2022-08-19T09:55:15;20.70;99.90
4245;DHT22;2136;48.502;9.194;2022-08-19T09:57:44;20.70;99.90
4245;DHT22;2136;48.502;9.194;2022-08-19T10:00:11;20.70;99.90
4245;DHT22;2136;48.502;9.194;2022-08-19T10:02:38;20.70;99.90
4245;DHT22;2136;48.502;9.194;2022-08-19T10:05:05;20.80;99.90
4245;DHT22;2136;48.502;9.194;2022-08-19T10:07:50;20.80;99.90
4245;DHT22;2136;48.502;9.194;2022-08-19T10:10:17;20.80;99.90
4245;DHT22;2136;48.502;9.194;2022-08-19T10:12:45;20.80;99.90
4245;DHT22;2136;48.502;9.194;2022-08-19T10:15:13;20.80;99.90
4245;DHT22;2136;48.502;9.194;2022-08-19T10:17:40;20.80;99.90
4245;DHT22;2136;48.502;9.194;2022-08-19T10:20:07;20.90;99.90
4245;DHT22;2136;48.502;9.194;2022-08-19T10:22:34;20.90;99.90
4245;DHT22;2136;48.502;9.194;2022-08-19T10:25:04;20.90;99.90
4245;DHT22;2136;48.502;9.194;2022-08-19T10:27:31;20.90;99.90
4245;DHT22;2136;48.502;9.194;2022-08-19T10:29:59;20.90;99.90
4245;DHT22;2136;48.502;9.194;2022-08-19T10:32:26;20.90;99.90
4245;DHT22;2136;48.502;9.194;2022-08-19T10:34:55;20.80;99.90
4245;DHT22;2136;48.502;9.194;2022-08-19T10:37:21;20.80;99.90
4245;DHT22;2136;48.502;9.194;2022-08-19T10:39:48;20.80;99.90
4245;DHT22;2136;48.502;9.194;2022-08-19T10:42:15;20.80;99.90
4245;DHT22;2136;48.502;9.194;2022-08-19T10:44:44;20.90;99.90
4245;DHT22;2136;48.502;9.194;2022-08-19T10:47:13;20.90;99.90
4245;DHT22;2136;48.502;9.194;2022-08-19T10:49:40;20.90;99.90
4245;DHT22;2136;48.502;9.194;2022-08-19T10:52:20;20.90;99.90
4245;DHT22;2136;48.502;9.194;2022-08-19T10:55:05;20.90;99.90
4245;DHT22;2136;48.502;9.194;2022-08-19T10:57:49;21.00;99.90
4245;DHT22;2136;48.502;9.194;2022-08-19T11:00:18;20.90;99.90
4245;DHT22;2136;48.502;9.194;2022-08-19T11:02:47;20.90;99.90
4245;DHT22;2136;48.502;9.194;2022-08-19T11:05:14;21.00;99.90
4245;DHT22;2136;48.502;9.194;2022-08-19T11:07:43;21.00;99.90
4245;DHT22;2136;48.502;9.194;2022-08-19T11:10:12;21.00;99.90
4245;DHT22;2136;48.502;9.194;2022-08-19T11:12:40;21.00;99.90
4245;DHT22;2136;48.502;9.194;2022-08-19T11:15:09;21.00;99.90
4245;DHT22;2136;48.502;9.194;2022-08-19T11:17:37;21.00;99.90
4245;DHT22;2136;48.502;9.194;2022-08-19T11:20:08;20.90;99.90
4245;DHT22;2136;48.502;9.194;2022-08-19T11:22:35;20.90;99.90
4245;DHT22;2136;48.502;9.194;2022-08-19T11:25:03;20.90;99.90
4245;DHT22;2136;48.502;9.194;2022-08-19T11:27:30;20.90;99.90
4245;DHT22;2136;48.502;9.194;2022-08-19T11:29:57;20.90;99.90
4245;DHT22;2136;48.502;9.194;2022-08-19T11:32:23;20.90;99.90
4245;DHT22;2136;48.502;9.194;2022-08-19T11:34:51;20.90;99.90
4245;DHT22;2136;48.502;9.194;2022-08-19T11:37:19;20.90;99.90
4245;DHT22;2136;48.502;9.194;2022-08-19T11:39:46;20.90;99.90
4245;DHT22;2136;48.502;9.194;2022-08-19T11:42:13;20.90;99.90
4245;DHT22;2136;48.502;9.194;2022-08-19T11:44:57;21.00;99.90
4245;DHT22;2136;48.502;9.194;2022-08-19T11:47:24;21.00;99.90
4245;DHT22;2136;48.502;9.194;2022-08-19T11:49:51;21.00;99.90
4245;DHT22;2136;48.502;9.194;2022-08-19T11:52:20;21.10;99.90
4245;DHT22;2136;48.502;9.194;2022-08-19T11:54:47;21.10;99.90
4245;DHT22;2136;48.502;9.194;2022-08-19T11:57:14;21.10;99.90
4245;DHT22;2136;48.502;9.194;2022-08-19T11:59:42;21.00;99.90
4245;DHT22;2136;48.502;9.194;2022-08-19T12:02:13;21.10;99.90
4245;DHT22;2136;48.502;9.194;2022-08-19T12:04:40;21.10;99.90
4245;DHT22;2136;48.502;9.194;2022-08-19T12:07:07;21.10;99.90
4245;DHT22;2136;48.502;9.194;2022-08-19T12:09:35;21.10;99.90
4245;DHT22;2136;48.502;9.194;2022-08-19T12:12:05;21.10;99.90
4245;DHT22;2136;48.502;9.194;2022-08-19T12:14:32;21.10;99.90
4245;DHT22;2136;48.502;9.194;2022-08-19T12:16:58;21.10;99.90
4245;DHT22;2136;48.502;9.194;2022-08-19T12:19:25;21.10;99.90
4245;DHT22;2136;48.502;9.194;2022-08-19T12:21:52;21.10;99.90
4245;DHT22;2136;48.502;9.194;2022-08-19T12:24:20;21.20;99.90
4245;DHT22;2136;48.502;9.194;2022-08-19T12:26:50;21.20;99.90
4245;DHT22;2136;48.502;9.194;2022-08-19T12:29:17;21.20;99.90
4245;DHT22;2136;48.502;9.194;2022-08-19T12:31:44;21.20;99.90
4245;DHT22;2136;48.502;9.194;2022-08-19T12:34:11;21.20;99.90
4245;DHT22;2136;48.502;9.194;2022-08-19T12:36:38;21.20;99.90
4245;DHT22;2136;48.502;9.194;2022-08-19T12:39:05;21.20;99.90
4245;DHT22;2136;48.502;9.194;2022-08-19T12:41:33;21.20;99.90
4245;DHT22;2136;48.502;9.194;2022-08-19T12:44:04;21.20;99.90
4245;DHT22;2136;48.502;9.194;2022-08-19T12:46:33;21.20;99.90
4245;DHT22;2136;48.502;9.194;2022-08-19T12:49:00;21.20;99.90
4245;DHT22;2136;48.502;9.194;2022-08-19T12:51:28;21.30;99.90
4245;DHT22;2136;48.502;9.194;2022-08-19T12:53:56;21.30;99.90
4245;DHT22;2136;48.502;9.194;2022-08-19T12:56:23;21.30;99.90
4245;DHT22;2136;48.502;9.194;2022-08-19T12:58:50;21.30;99.90
4245;DHT22;2136;48.502;9.194;2022-08-19T13:01:19;21.40;99.90
4245;DHT22;2136;48.502;9.194;2022-08-19T13:03:46;21.40;99.90
4245;DHT22;2136;48.502;9.194;2022-08-19T13:06:14;21.40;99.90
4245;DHT22;2136;48.502;9.194;2022-08-19T13:08:41;21.40;99.90
4245;DHT22;2136;48.502;9.194;2022-08-19T13:11:10;21.40;99.90
4245;DHT22;2136;48.502;9.194;2022-08-19T13:13:39;21.40;99.90
4245;DHT22;2136;48.502;9.194;2022-08-19T13:16:07;21.50;99.90
4245;DHT22;2136;48.502;9.194;2022-08-19T13:18:36;21.50;99.90
4245;DHT22;2136;48.502;9.194;2022-08-19T13:21:04;21.50;99.90
4245;DHT22;2136;48.502;9.194;2022-08-19T13:23:32;21.50;99.90
4245;DHT22;2136;48.502;9.194;2022-08-19T13:26:00;21.50;99.90
4245;DHT22;2136;48.502;9.194;2022-08-19T13:28:28;21.40;99.90
4245;DHT22;2136;48.502;9.194;2022-08-19T13:31:16;21.40;99.90
4245;DHT22;2136;48.502;9.194;2022-08-19T13:34:02;21.40;99.90
4245;DHT22;2136;48.502;9.194;2022-08-19T13:36:30;21.40;99.90
4245;DHT22;2136;48.502;9.194;2022-08-19T13:38:56;21.40;99.90
4245;DHT22;2136;48.502;9.194;2022-08-19T13:41:23;21.40;99.90
4245;DHT22;2136;48.502;9.194;2022-08-19T13:43:50;21.50;99.90
4245;DHT22;2136;48.502;9.194;2022-08-19T13:46:17;21.40;99.90
4245;DHT22;2136;48.502;9.194;2022-08-19T13:48:45;21.40;99.90
4245;DHT22;2136;48.502;9.194;2022-08-19T13:51:15;21.40;99.90
4245;DHT22;2136;48.502;9.194;2022-08-19T13:53:43;21.40;99.90
4245;DHT22;2136;48.502;9.194;2022-08-19T13:56:12;21.30;99.90
4245;DHT22;2136;48.502;9.194;2022-08-19T13:58:39;21.30;99.90
4245;DHT22;2136;48.502;9.194;2022-08-19T14:01:08;21.30;99.90
4245;DHT22;2136;48.502;9.194;2022-08-19T14:03:36;21.30;99.90
4245;DHT22;2136;48.502;9.194;2022-08-19T14:06:03;21.30;99.90
4245;DHT22;2136;48.502;9.194;2022-08-19T14:08:31;21.30;99.90
4245;DHT22;2136;48.502;9.194;2022-08-19T14:10:58;21.30;99.90
4245;DHT22;2136;48.502;9.194;2022-08-19T14:13:25;21.30;99.90
4245;DHT22;2136;48.502;9.194;2022-08-19T14:15:52;21.30;99.90
4245;DHT22;2136;48.502;9.194;2022-08-19T14:18:20;21.30;99.90
4245;DHT22;2136;48.502;9.194;2022-08-19T14:20:47;21.30;99.90
4245;DHT22;2136;48.502;9.194;2022-08-19T14:23:14;21.30;99.90
4245;DHT22;2136;48.502;9.194;2022-08-19T14:25:43;21.30;99.90
4245;DHT22;2136;48.502;9.194;2022-08-19T14:28:10;21.30;99.90
4245;DHT22;2136;48.502;9.194;2022-08-19T14:30:37;21.20;99.90
4245;DHT22;2136;48.502;9.194;2022-08-19T14:33:05;21.20;99.90
4245;DHT22;2136;48.502;9.194;2022-08-19T14:35:34;21.10;99.90
4245;DHT22;2136;48.502;9.194;2022-08-19T14:38:01;21.10;99.90
4245;DHT22;2136;48.502;9.194;2022-08-19T14:40:30;21.10;99.90
4245;DHT22;2136;48.502;9.194;2022-08-19T14:43:01;21.00;99.90
4245;DHT22;2136;48.502;9.194;2022-08-19T14:45:31;21.00;99.90
4245;DHT22;2136;48.502;9.194;2022-08-19T14:47:58;20.90;99.90
4245;DHT22;2136;48.502;9.194;2022-08-19T14:50:26;21.00;99.90
4245;DHT22;2136;48.502;9.194;2022-08-19T14:52:58;20.90;99.90
4245;DHT22;2136;48.502;9.194;2022-08-19T14:55:26;20.90;99.90
4245;DHT22;2136;48.502;9.194;2022-08-19T14:57:53;20.90;99.90
4245;DHT22;2136;48.502;9.194;2022-08-19T15:00:22;20.90;99.90
4245;DHT22;2136;48.502;9.194;2022-08-19T15:02:49;20.90;99.90
4245;DHT22;2136;48.502;9.194;2022-08-19T15:05:16;20.90;99.90
4245;DHT22;2136;48.502;9.194;2022-08-19T15:07:43;20.80;99.90
4245;DHT22;2136;48.502;9.194;2022-08-19T15:10:12;20.90;99.90
4245;DHT22;2136;48.502;9.194;2022-08-19T15:12:39;20.90;99.90
4245;DHT22;2136;48.502;9.194;2022-08-19T15:15:07;20.90;99.90
4245;DHT22;2136;48.502;9.194;2022-08-19T15:17:36;20.90;99.90
4245;DHT22;2136;48.502;9.194;2022-08-19T15:20:03;20.90;99.90
4245;DHT22;2136;48.502;9.194;2022-08-19T15:22:30;20.90;99.90
4245;DHT22;2136;48.502;9.194;2022-08-19T15:24:57;20.90;99.90
4245;DHT22;2136;48.502;9.194;2022-08-19T15:27:24;20.90;99.90
4245;DHT22;2136;48.502;9.194;2022-08-19T15:29:51;21.00;99.90
4245;DHT22;2136;48.502;9.194;2022-08-19T15:32:18;21.00;99.90
4245;DHT22;2136;48.502;9.194;2022-08-19T15:34:46;21.10;99.90
4245;DHT22;2136;48.502;9.194;2022-08-19T15:37:14;21.10;99.90
4245;DHT22;2136;48.502;9.194;2022-08-19T15:39:41;21.20;99.90
4245;DHT22;2136;48.502;9.194;2022-08-19T15:42:08;21.30;99.90
4245;DHT22;2136;48.502;9.194;2022-08-19T15:44:35;21.30;99.90
4245;DHT22;2136;48.502;9.194;2022-08-19T15:47:02;21.40;99.90
4245;DHT22;2136;48.502;9.194;2022-08-19T15:49:29;21.40;99.90
4245;DHT22;2136;48.502;9.194;2022-08-19T15:51:57;21.50;99.90
4245;DHT22;2136;48.502;9.194;2022-08-19T15:54:26;21.50;99.90
4245;DHT22;2136;48.502;9.194;2022-08-19T15:56:52;21.50;99.90
4245;DHT22;2136;48.502;9.194;2022-08-19T15:59:37;21.50;99.90
4245;DHT22;2136;48.502;9.194;2022-08-19T16:02:24;21.50;99.90
4245;DHT22;2136;48.502;9.194;2022-08-19T16:05:10;21.50;99.90
4245;DHT22;2136;48.502;9.194;2022-08-19T16:07:56;21.50;99.90
4245;DHT22;2136;48.502;9.194;2022-08-19T16:10:23;21.50;99.90
4245;DHT22;2136;48.502;9.194;2022-08-19T16:12:50;21.50;99.90